Time;durP1;ratioP1;P1;durP2;ratioP2;P2;SDS_P1;SDS_P2;PMS_P1;PMS_P2;Temp;Humidity;BMP_temperature;BMP_pressure;BME280_temperature;BME280_humidity;BME280_pressure;Samples;Min_cycle;Max_cycle;Signal;HPM_P1;HPM_P2
2022/05/02 00:04:46;;;;;;;5.28;3.47;;;;;;;8.37;58.70;95986.47;10360735;28;98731;-66
2022/05/02 00:09:50;;;;;;;7.43;4.30;;;;;;;8.33;59.57;95983.34;10344603;28;97232;-66
2022/05/02 00:14:53;;;;;;;7.47;5.05;;;;;;;8.22;60.17;95979.13;10349953;28;97372;-66
2022/05/02 00:19:56;;;;;;;6.43;4.82;;;;;;;8.10;61.23;95980.19;10340952;28;97073;-66
2022/05/02 00:25:00;;;;;;;5.28;4.00;;;;;;;7.96;61.28;95982.28;10364828;28;96846;-65
2022/05/02 00:30:08;;;;;;;5.10;3.85;;;;;;;7.94;60.04;95973.81;10354630;28;96889;-66
2022/05/02 00:35:12;;;;;;;5.47;4.10;;;;;;;7.87;60.20;95970.09;10368499;28;98045;-66
2022/05/02 00:40:17;;;;;;;5.93;4.10;;;;;;;7.86;60.75;95972.84;10347743;28;96868;-65
2022/05/02 00:45:21;;;;;;;5.90;4.10;;;;;;;7.82;61.06;95982.69;10344724;28;96956;-65
2022/05/02 00:50:34;;;;;;;6.00;4.18;;;;;;;7.72;62.14;95976.69;10343130;28;96953;-65
2022/05/02 00:55:39;;;;;;;6.50;4.15;;;;;;;7.59;62.19;95977.75;10354553;28;97135;-65
2022/05/02 01:00:42;;;;;;;4.25;3.47;;;;;;;7.56;62.65;95978.03;10343315;28;98907;-65
2022/05/02 01:11:16;;;;;;;5.50;3.67;;;;;;;7.35;62.59;95959.97;10253419;28;96904;-65
2022/05/02 01:16:21;;;;;;;5.63;4.17;;;;;;;7.26;62.89;95954.72;10249244;28;97506;-66
2022/05/02 01:21:26;;;;;;;3.73;3.13;;;;;;;7.18;62.90;95953.63;10252704;28;96898;-65
2022/05/02 01:26:29;;;;;;;6.20;3.60;;;;;;;7.11;63.14;95952.53;10253878;28;97383;-66
2022/05/02 01:31:32;;;;;;;4.95;3.70;;;;;;;7.02;63.62;95950.69;10265804;28;96984;-65
2022/05/02 01:36:37;;;;;;;4.30;3.10;;;;;;;6.89;63.37;95945.72;10252789;28;96924;-65
2022/05/02 01:41:39;;;;;;;5.35;3.70;;;;;;;6.77;64.18;95947.59;10256457;28;96981;-65
2022/05/02 01:46:43;;;;;;;5.60;3.75;;;;;;;6.68;64.01;95950.16;10312237;28;97061;-66
2022/05/02 01:51:48;;;;;;;4.97;3.90;;;;;;;6.63;64.49;95947.97;10340833;28;97907;-65
2022/05/02 01:56:56;;;;;;;7.75;4.57;;;;;;;6.57;65.15;95953.66;10346418;28;102289;-65
2022/05/02 02:01:59;;;;;;;8.65;5.03;;;;;;;6.45;65.93;95952.91;10368321;28;97186;-66
2022/05/02 02:07:04;;;;;;;6.32;4.93;;;;;;;6.31;66.85;95948.88;10340457;28;97043;-66
2022/05/02 02:12:08;;;;;;;7.40;5.32;;;;;;;6.24;67.46;95948.59;10356968;28;97006;-66
2022/05/02 02:17:11;;;;;;;8.82;4.80;;;;;;;6.05;68.06;95954.50;10348419;28;97182;-66
2022/05/02 02:22:18;;;;;;;6.47;4.88;;;;;;;5.94;68.34;95951.94;10352711;28;96844;-65
2022/05/02 02:27:21;;;;;;;4.93;3.80;;;;;;;5.97;68.42;95948.28;10341269;28;96908;-65
2022/05/02 02:32:24;;;;;;;5.80;3.80;;;;;;;5.95;68.27;95938.03;10359852;28;97324;-65
2022/05/02 02:37:28;;;;;;;4.30;3.58;;;;;;;5.94;68.81;95935.59;10358604;28;97086;-66
2022/05/02 02:42:31;;;;;;;6.32;4.07;;;;;;;5.93;68.60;95939.94;10361458;28;97075;-65
2022/05/02 02:47:34;;;;;;;4.20;3.20;;;;;;;5.87;68.49;95930.06;10350789;28;99755;-65
2022/05/02 02:52:39;;;;;;;6.80;3.78;;;;;;;5.81;68.46;95935.75;10343131;28;97328;-65
2022/05/02 02:57:42;;;;;;;6.53;4.22;;;;;;;5.77;68.46;95934.38;10359961;28;96874;-65
2022/05/02 03:02:45;;;;;;;6.18;4.10;;;;;;;5.75;68.73;95931.09;10370155;28;97214;-65
2022/05/02 03:07:49;;;;;;;8.20;3.80;;;;;;;5.75;68.74;95925.91;10351234;28;97839;-65
2022/05/02 03:12:52;;;;;;;4.57;3.72;;;;;;;5.64;69.42;95930.19;10347043;28;97493;-65
2022/05/02 03:17:55;;;;;;;4.47;3.50;;;;;;;5.58;69.45;95920.31;10346179;28;96834;-66
2022/05/02 03:22:59;;;;;;;4.78;3.60;;;;;;;5.60;69.11;95915.00;10342369;28;96948;-65
2022/05/02 03:28:04;;;;;;;4.03;3.40;;;;;;;5.55;69.72;95912.81;10344130;28;96857;-66
2022/05/02 03:33:07;;;;;;;5.00;3.47;;;;;;;5.50;69.56;95907.16;10366532;28;98625;-66
2022/05/02 03:38:11;;;;;;;4.63;3.75;;;;;;;5.42;69.70;95907.78;10370149;28;96789;-66
2022/05/02 03:43:14;;;;;;;5.18;3.65;;;;;;;5.34;70.16;95898.03;10366537;28;98759;-66
2022/05/02 03:48:17;;;;;;;6.25;3.80;;;;;;;5.25;70.02;95893.63;10353315;28;100064;-65
2022/05/02 03:53:21;;;;;;;5.30;4.15;;;;;;;5.24;70.54;95899.72;10354143;28;96914;-65
2022/05/02 03:58:24;;;;;;;4.57;3.45;;;;;;;5.24;70.19;95902.31;10341903;28;97108;-66
2022/05/02 04:03:27;;;;;;;3.72;2.90;;;;;;;5.20;69.50;95898.34;10370269;28;96958;-65
2022/05/02 04:08:31;;;;;;;5.97;3.70;;;;;;;5.22;69.83;95899.03;10365296;28;97172;-65
2022/05/02 04:13:34;;;;;;;5.00;3.28;;;;;;;5.18;69.43;95901.97;10370888;28;96969;-65
2022/05/02 04:18:37;;;;;;;7.90;4.43;;;;;;;4.99;70.20;95910.38;10354401;28;97396;-65
2022/05/02 04:23:41;;;;;;;6.45;4.30;;;;;;;4.80;70.80;95919.59;10354506;28;96924;-65
2022/05/02 04:28:44;;;;;;;6.57;4.13;;;;;;;4.80;71.38;95911.81;10344783;28;96896;-65
2022/05/02 04:33:47;;;;;;;6.35;4.35;;;;;;;4.79;71.25;95917.97;10355090;28;96844;-65
2022/05/02 04:38:51;;;;;;;4.72;3.97;;;;;;;4.83;71.38;95914.19;10351660;28;96795;-65
2022/05/02 04:43:55;;;;;;;4.38;3.40;;;;;;;4.95;70.50;95913.22;10351412;28;96912;-65
2022/05/02 04:48:58;;;;;;;3.85;3.00;;;;;;;5.03;70.00;95914.38;10355886;28;96918;-65
2022/05/02 04:54:02;;;;;;;5.05;3.75;;;;;;;5.06;70.34;95914.13;10348806;28;96877;-65
2022/05/02 04:59:05;;;;;;;4.40;3.45;;;;;;;5.14;70.03;95919.53;10361484;28;96984;-65
2022/05/02 05:04:09;;;;;;;4.75;3.50;;;;;;;5.10;70.31;95910.38;10358939;28;96834;-65
2022/05/02 05:09:13;;;;;;;3.95;3.33;;;;;;;5.28;69.92;95919.25;10361200;28;97266;-65
2022/05/02 05:20:05;;;;;;;5.30;4.03;;;;;;;5.48;70.28;95909.06;10173162;28;97060;-65
2022/05/02 05:25:35;;;;;;;4.75;3.65;;;;;;;5.61;69.35;95907.09;10173631;28;97241;-65
2022/05/02 05:30:44;;;;;;;5.20;3.65;;;;;;;5.76;69.35;95922.38;10200203;28;97076;-66
2022/05/02 05:36:04;;;;;;;6.28;4.05;;;;;;;5.94;69.75;95909.66;10183213;28;99968;-65
2022/05/02 05:41:21;;;;;;;12.65;4.70;;;;;;;6.12;69.58;95912.47;10193254;28;96991;-65
2022/05/02 05:46:52;;;;;;;14.93;5.45;;;;;;;6.33;69.51;95917.63;10182022;28;97094;-65
2022/05/02 05:52:04;;;;;;;9.18;4.68;;;;;;;6.52;68.87;95919.50;10253631;28;96913;-65
2022/05/02 05:57:24;;;;;;;9.73;5.07;;;;;;;6.74;69.20;95919.28;10350050;28;98254;-65
2022/05/02 06:02:37;;;;;;;5.47;3.88;;;;;;;7.00;67.76;95921.44;10348842;28;96784;-65
2022/05/02 06:07:41;;;;;;;5.93;3.95;;;;;;;7.16;68.09;95923.53;10340674;28;97035;-65
2022/05/02 06:12:46;;;;;;;5.10;4.20;;;;;;;7.27;67.33;95931.22;10368480;28;96860;-65
2022/05/02 06:23:13;;;;;;;6.85;4.13;;;;;;;7.68;67.01;95923.28;10338727;28;96768;-65
2022/05/02 06:28:21;;;;;;;4.30;3.53;;;;;;;7.86;66.00;95931.25;10353202;28;96887;-65
2022/05/02 06:33:24;;;;;;;7.85;4.80;;;;;;;8.04;65.48;95933.94;10363395;28;96984;-65
2022/05/02 06:38:43;;;;;;;7.75;4.88;;;;;;;8.27;65.73;95930.03;10362332;28;96915;-65
2022/05/02 06:43:55;;;;;;;8.00;4.38;;;;;;;8.47;65.08;95932.59;10337282;28;97333;-65
2022/05/02 06:49:03;;;;;;;7.18;4.90;;;;;;;8.59;64.21;95931.47;10352134;28;96939;-65
2022/05/02 06:54:32;;;;;;;6.78;4.57;;;;;;;8.68;63.08;95928.00;10340574;28;97994;-65
2022/05/02 06:59:41;;;;;;;9.15;4.45;;;;;;;8.76;62.50;95934.25;10341160;28;98909;-65
2022/05/02 07:04:49;;;;;;;7.72;4.70;;;;;;;8.87;62.27;95926.28;10336479;28;96801;-65
2022/05/02 07:09:57;;;;;;;9.77;5.47;;;;;;;9.03;62.79;95931.66;10339674;28;96925;-65
2022/05/02 07:15:13;;;;;;;9.70;6.00;;;;;;;9.31;63.57;95923.81;10340336;28;96921;-65
2022/05/02 07:20:20;;;;;;;6.47;5.03;;;;;;;9.58;62.68;95920.38;10343146;28;96875;-65
2022/05/02 07:25:23;;;;;;;8.48;5.20;;;;;;;9.78;63.07;95923.63;10343364;28;97353;-65
2022/05/02 07:30:28;;;;;;;8.93;5.88;;;;;;;9.98;62.69;95911.22;10347716;28;96945;-65
2022/05/02 07:35:31;;;;;;;7.77;6.20;;;;;;;10.12;62.66;95912.47;10347730;28;97188;-66
2022/05/02 07:40:36;;;;;;;11.93;6.50;;;;;;;10.31;63.49;95910.63;10341518;28;96916;-65
2022/05/02 07:45:40;;;;;;;6.57;5.23;;;;;;;10.32;62.60;95912.25;10345096;28;96939;-65
2022/05/02 07:50:44;;;;;;;6.93;5.63;;;;;;;10.61;62.07;95912.75;10345807;28;97185;-66
2022/05/02 07:55:50;;;;;;;7.10;5.95;;;;;;;10.74;61.98;95914.13;10342092;28;96860;-65
2022/05/02 08:00:54;;;;;;;7.03;5.43;;;;;;;10.91;61.54;95915.00;10345482;28;98370;-65
2022/05/02 08:06:10;;;;;;;9.88;6.40;;;;;;;11.08;61.14;95914.06;10345272;28;96972;-65
2022/05/02 08:11:19;;;;;;;7.63;5.68;;;;;;;11.29;60.63;95918.88;10344678;28;96862;-65
2022/05/02 08:16:26;;;;;;;8.32;5.55;;;;;;;11.46;60.43;95919.75;10341496;28;96766;-65
2022/05/02 08:21:34;;;;;;;7.75;5.55;;;;;;;11.63;60.23;95912.75;10347436;28;96911;-65
2022/05/02 08:32:33;;;;;;;8.32;6.43;;;;;;;11.90;60.01;95906.41;10343170;28;96976;-65
2022/05/02 08:38:04;;;;;;;6.95;5.75;;;;;;;12.05;60.14;95896.06;10338223;28;96886;-65
2022/05/02 08:43:45;;;;;;;7.70;6.82;;;;;;;12.21;59.92;95902.25;10356210;28;96821;-65
2022/05/02 08:49:37;;;;;;;8.63;6.75;;;;;;;12.37;59.99;95904.88;10342797;28;96901;-65
2022/05/02 08:55:06;;;;;;;8.52;6.15;;;;;;;12.45;59.64;95898.78;10345848;28;99125;-65
2022/05/02 09:00:09;;;;;;;7.90;6.55;;;;;;;12.65;59.18;95891.38;10343731;28;96798;-65
2022/05/02 09:05:51;;;;;;;9.23;7.15;;;;;;;12.77;58.41;95895.25;10342728;28;96755;-65
2022/05/02 09:11:12;;;;;;;8.68;6.70;;;;;;;12.84;58.55;95885.72;10339334;28;96840;-66
2022/05/02 09:16:37;;;;;;;7.47;6.05;;;;;;;13.12;58.28;95887.91;10355810;28;99834;-65
2022/05/02 09:22:05;;;;;;;9.65;6.95;;;;;;;13.29;58.57;95877.31;10344825;28;97025;-66
2022/05/02 09:27:15;;;;;;;10.45;7.18;;;;;;;13.56;58.45;95879.44;10346595;28;96761;-65
2022/05/02 09:32:25;;;;;;;10.30;7.13;;;;;;;13.78;57.65;95871.72;10341826;28;97141;-66
2022/05/02 09:37:38;;;;;;;8.48;6.97;;;;;;;13.92;58.11;95873.56;10354022;28;97771;-66
2022/05/02 09:42:51;;;;;;;10.07;7.45;;;;;;;13.92;57.13;95865.69;10343164;28;96936;-66
2022/05/02 09:54:04;;;;;;;7.90;7.10;;;;;;;14.14;57.34;95860.56;10342481;28;96736;-65
2022/05/02 09:59:09;;;;;;;9.63;6.80;;;;;;;14.31;56.63;95856.81;10339151;28;97908;-65
2022/05/02 10:04:37;;;;;;;8.27;6.75;;;;;;;14.27;56.56;95852.09;10339272;28;96771;-65
2022/05/02 10:10:03;;;;;;;7.03;6.18;;;;;;;14.44;56.54;95847.50;10346127;28;97057;-65
2022/05/02 10:15:38;;;;;;;8.02;6.80;;;;;;;14.54;56.00;95846.22;10341467;28;96765;-66
2022/05/02 10:21:02;;;;;;;7.93;5.80;;;;;;;14.73;55.76;95839.59;10341464;28;96924;-65
2022/05/02 10:26:26;;;;;;;6.23;5.63;;;;;;;15.04;54.81;95835.88;10337129;28;96862;-65
2022/05/02 10:31:34;;;;;;;5.90;5.30;;;;;;;15.41;54.75;95831.44;10336574;28;97165;-66
2022/05/02 10:36:38;;;;;;;7.50;5.38;;;;;;;15.66;53.54;95834.50;10340834;28;96791;-65
2022/05/02 10:41:46;;;;;;;6.10;5.00;;;;;;;15.74;52.72;95830.94;10341071;28;96972;-65
2022/05/02 10:46:52;;;;;;;6.20;4.97;;;;;;;15.71;52.48;95836.59;10337437;28;96873;-65
2022/05/02 10:51:59;;;;;;;5.38;4.78;;;;;;;15.88;52.37;95829.22;10342071;28;96850;-65
2022/05/02 10:57:12;;;;;;;5.47;4.05;;;;;;;16.09;51.19;95828.38;10348140;28;96785;-66
2022/05/02 11:02:33;;;;;;;6.57;4.80;;;;;;;16.29;52.06;95817.13;10346049;28;96897;-66
2022/05/02 11:07:44;;;;;;;8.60;5.60;;;;;;;16.43;51.30;95818.84;10342766;28;96870;-65
2022/05/02 11:12:53;;;;;;;6.93;5.05;;;;;;;16.51;51.09;95800.22;10347013;28;96786;-65
2022/05/02 11:18:07;;;;;;;7.43;4.32;;;;;;;16.70;50.63;95803.16;10345583;28;97022;-66
2022/05/02 11:23:38;;;;;;;19.03;7.50;;;;;;;16.78;50.47;95803.03;10344886;28;96745;-66
2022/05/02 11:29:00;;;;;;;7.65;4.10;;;;;;;16.97;49.25;95785.59;10329953;28;96945;-66
2022/05/02 11:34:11;;;;;;;4.93;3.58;;;;;;;17.16;48.66;95778.75;10358039;28;98260;-66
2022/05/02 11:39:21;;;;;;;5.90;3.83;;;;;;;17.28;48.88;95773.69;10346717;28;97382;-65
2022/05/02 11:44:32;;;;;;;4.63;3.17;;;;;;;17.57;47.93;95773.31;10345746;28;96753;-65
2022/05/02 11:49:58;;;;;;;3.53;3.22;;;;;;;17.82;47.29;95774.53;10341342;28;96938;-66
2022/05/02 11:55:02;;;;;;;4.97;3.08;;;;;;;18.08;47.05;95774.53;10358086;28;97069;-66
2022/05/02 12:00:11;;;;;;;7.40;3.63;;;;;;;18.20;46.00;95764.13;10345986;28;96885;-65
2022/05/02 12:05:23;;;;;;;4.10;3.08;;;;;;;18.11;45.07;95762.72;10344897;28;99987;-66
2022/05/02 12:10:34;;;;;;;4.97;2.85;;;;;;;18.21;45.79;95762.31;10341019;28;97287;-66
2022/05/02 12:15:59;;;;;;;3.55;2.90;;;;;;;17.83;44.66;95758.47;10345059;28;96983;-66
2022/05/02 12:21:07;;;;;;;5.88;2.38;;;;;;;17.98;44.83;95758.28;10345209;28;96957;-66
2022/05/02 12:26:18;;;;;;;4.10;2.20;;;;;;;18.41;43.33;95757.78;10342204;28;97089;-66
2022/05/02 12:31:26;;;;;;;2.78;1.92;;;;;;;18.32;42.24;95748.44;10341443;28;98769;-66
2022/05/02 12:36:36;;;;;;;3.63;2.17;;;;;;;18.52;42.18;95747.59;10346361;28;96828;-66
2022/05/02 12:41:46;;;;;;;2.65;2.25;;;;;;;18.74;42.35;95751.56;10344978;28;97230;-66
2022/05/02 12:46:54;;;;;;;4.32;2.10;;;;;;;18.92;42.10;95742.94;10342599;28;96818;-67
2022/05/02 12:52:00;;;;;;;4.38;2.45;;;;;;;19.11;41.67;95740.41;10355424;28;99683;-66
2022/05/02 13:02:33;;;;;;;3.35;2.38;;;;;;;19.70;40.82;95733.03;10342455;28;96711;-66
2022/05/02 13:07:44;;;;;;;4.35;2.28;;;;;;;19.93;40.26;95738.53;10339384;28;96934;-66
2022/05/02 13:12:57;;;;;;;3.50;1.80;;;;;;;19.98;40.17;95729.94;10342653;28;96941;-67
2022/05/02 13:18:04;;;;;;;3.83;2.15;;;;;;;20.07;39.80;95727.81;10342492;28;99741;-66
2022/05/02 13:23:38;;;;;;;2.28;1.63;;;;;;;19.99;38.81;95719.09;10344191;28;96992;-67
2022/05/02 13:28:55;;;;;;;2.55;1.75;;;;;;;20.30;38.87;95712.03;10338730;28;96983;-66
2022/05/02 13:34:03;;;;;;;2.20;1.88;;;;;;;20.59;38.40;95701.69;10342295;28;102031;-66
2022/05/02 13:39:10;;;;;;;2.65;1.65;;;;;;;20.74;37.24;95701.34;10343259;28;96838;-67
2022/05/02 13:44:23;;;;;;;1.95;1.40;;;;;;;21.03;38.02;95690.91;10340436;28;97042;-66
2022/05/02 13:49:49;;;;;;;2.97;1.50;;;;;;;21.22;36.42;95681.81;10338583;28;97183;-66
2022/05/02 13:54:54;;;;;;;4.03;1.70;;;;;;;21.44;36.21;95674.13;10340288;28;96912;-66
2022/05/02 14:00:43;;;;;;;2.88;1.70;;;;;;;21.71;35.73;95676.38;10341915;28;96885;-66
2022/05/02 14:05:43;;;;;;;1.92;1.63;;;;;;;21.70;36.17;95666.78;10343120;28;96833;-66
2022/05/02 14:10:53;;;;;;;1.98;1.50;;;;;;;21.72;35.40;95658.56;10337879;28;97143;-66
2022/05/02 14:16:04;;;;;;;3.72;1.80;;;;;;;21.76;35.30;95665.84;10341356;28;97051;-66
2022/05/02 14:21:09;;;;;;;1.83;1.58;;;;;;;21.98;35.70;95665.25;10341743;28;96859;-66
2022/05/02 14:26:12;;;;;;;3.88;2.00;;;;;;;22.11;35.34;95657.03;10339144;28;96755;-66
2022/05/02 14:31:15;;;;;;;2.33;1.90;;;;;;;22.48;35.22;95654.03;10347669;28;96845;-66
2022/05/02 14:36:20;;;;;;;2.50;1.90;;;;;;;22.09;35.97;95651.09;10348796;28;97446;-66
2022/05/02 14:41:24;;;;;;;3.67;2.30;;;;;;;21.41;36.21;95652.50;10348178;28;96929;-66
2022/05/02 14:46:28;;;;;;;;;;;;;;;21.60;37.06;95648.69;10343224;28;96792;-66
2022/05/02 14:51:38;;;;;;;3.90;2.50;;;;;;;21.93;35.82;95644.66;10347962;28;96865;-66
2022/05/02 14:56:42;;;;;;;2.60;1.80;;;;;;;22.49;35.65;95647.69;10351133;28;99919;-66
2022/05/02 15:01:50;;;;;;;2.88;1.90;;;;;;;22.70;34.76;95638.22;10343076;28;97077;-66
2022/05/02 15:06:56;;;;;;;3.40;1.90;;;;;;;22.54;35.47;95645.09;10346266;28;101182;-66
2022/05/02 15:12:07;;;;;;;2.92;1.77;;;;;;;22.15;36.24;95647.50;10347297;28;98529;-66
2022/05/02 15:17:22;;;;;;;2.63;1.45;;;;;;;22.31;35.50;95640.63;10344695;28;97205;-66
2022/05/02 15:22:30;;;;;;;4.40;2.08;;;;;;;21.39;37.14;95636.81;10345059;28;97463;-66
2022/05/02 15:38:24;;;;;;;1.75;1.65;;;;;;;19.61;38.73;95629.97;10354267;27;97811;-66
2022/05/02 15:43:31;;;;;;;1.80;1.55;;;;;;;19.47;39.03;95625.81;10361903;28;97215;-66
2022/05/02 15:48:35;;;;;;;2.28;1.50;;;;;;;19.84;38.48;95623.22;10368497;28;99774;-66
2022/05/02 15:53:40;;;;;;;1.55;1.20;;;;;;;20.37;38.15;95621.75;10371527;28;97232;-66
2022/05/02 15:59:01;;;;;;;1.58;1.40;;;;;;;20.78;35.93;95606.13;10340308;28;96956;-66
2022/05/02 16:04:15;;;;;;;1.77;1.30;;;;;;;21.11;35.34;95616.22;10356962;28;97310;-67
2022/05/02 16:14:44;;;;;;;2.03;1.20;;;;;;;22.24;33.56;95610.72;10346265;28;97180;-67
2022/05/02 16:19:48;;;;;;;1.98;1.20;;;;;;;22.57;33.31;95612.69;10340833;28;96779;-67
2022/05/02 16:24:54;;;;;;;1.03;0.90;;;;;;;22.12;32.80;95610.72;10344740;28;97054;-67
2022/05/02 16:29:57;;;;;;;1.50;1.15;;;;;;;22.41;32.69;95610.75;10360347;28;96863;-66
2022/05/02 16:35:00;;;;;;;0.97;0.90;;;;;;;23.09;31.94;95618.88;10340174;28;99562;-66
2022/05/02 16:40:25;;;;;;;0.80;0.75;;;;;;;23.75;30.30;95609.22;10352040;28;96893;-66
2022/05/02 16:45:30;;;;;;;2.15;1.17;;;;;;;24.18;28.70;95608.72;10366057;28;97082;-66
2022/05/02 16:50:34;;;;;;;1.75;0.75;;;;;;;24.86;28.84;95604.66;10367150;28;97416;-67
2022/05/02 16:55:38;;;;;;;1.95;1.10;;;;;;;25.93;28.24;95605.66;10356034;28;98216;-67
2022/05/02 17:00:53;;;;;;;3.28;1.80;;;;;;;25.76;28.80;95603.97;10348607;28;99047;-66
2022/05/02 17:06:01;;;;;;;2.30;1.73;;;;;;;25.03;30.17;95603.72;10349936;28;96869;-67
2022/05/02 17:11:06;;;;;;;3.08;1.90;;;;;;;25.16;30.15;95597.13;10345927;28;97359;-64
2022/05/02 17:16:14;;;;;;;2.63;1.83;;;;;;;25.23;29.54;95606.56;10350855;28;96764;-64
2022/05/02 17:21:17;;;;;;;3.20;1.58;;;;;;;24.33;31.11;95622.22;10343016;28;96903;-64
2022/05/02 17:26:23;;;;;;;2.83;1.60;;;;;;;24.12;31.52;95623.84;10341862;28;99597;-64
2022/05/02 17:31:27;;;;;;;3.20;1.52;;;;;;;23.63;31.82;95627.19;10348968;28;97001;-64
2022/05/02 17:36:29;;;;;;;9.65;8.75;;;;;;;23.24;32.01;95627.13;10350977;28;96935;-63
2022/05/02 17:41:34;;;;;;;5.03;3.80;;;;;;;22.72;32.66;95625.47;10349428;28;96844;-63
2022/05/02 17:46:39;;;;;;;1.42;1.33;;;;;;;22.02;33.05;95631.81;10352444;28;97225;-63
2022/05/02 17:51:54;;;;;;;43.75;37.15;;;;;;;21.03;34.30;95625.34;10357643;28;96938;-64
2022/05/02 17:57:00;;;;;;;4.18;2.10;;;;;;;20.15;35.04;95626.75;10358717;28;96951;-66
2022/05/02 18:02:06;;;;;;;2.22;1.98;;;;;;;19.41;37.29;95639.94;10348843;28;96964;-66
2022/05/02 18:07:11;;;;;;;2.83;2.08;;;;;;;18.64;37.79;95638.25;10369080;28;97121;-65
2022/05/02 18:12:25;;;;;;;3.35;2.00;;;;;;;18.21;38.63;95651.28;10352094;28;98103;-65
2022/05/02 18:17:39;;;;;;;41.10;36.10;;;;;;;18.06;39.03;95646.25;10356621;28;99511;-65
2022/05/02 18:22:42;;;;;;;3.28;2.25;;;;;;;17.87;39.56;95647.94;10345107;28;97059;-66
2022/05/02 18:27:49;;;;;;;3.25;1.85;;;;;;;17.73;39.83;95653.25;10340900;28;97181;-65
2022/05/02 18:32:55;;;;;;;3.63;2.35;;;;;;;17.33;40.96;95650.63;10358390;28;96780;-65
2022/05/02 18:38:04;;;;;;;2.20;1.90;;;;;;;16.89;41.86;95648.63;10359780;28;96926;-66
2022/05/02 18:43:12;;;;;;;2.97;2.08;;;;;;;16.73;42.35;95657.69;10352018;28;96844;-65
2022/05/02 18:53:37;;;;;;;2.50;2.08;;;;;;;16.44;42.31;95657.03;10341592;28;97241;-66
2022/05/02 18:58:43;;;;;;;3.83;2.30;;;;;;;16.35;43.09;95660.84;10350725;28;97360;-65
2022/05/02 19:03:50;;;;;;;2.95;2.33;;;;;;;16.37;43.09;95656.19;10339015;28;97009;-65
2022/05/02 19:08:55;;;;;;;3.20;2.17;;;;;;;16.30;43.81;95671.19;10354580;28;96798;-66
2022/05/02 19:14:03;;;;;;;3.50;2.60;;;;;;;16.19;44.14;95677.78;10353602;28;101470;-67
2022/05/02 19:19:08;;;;;;;4.05;2.35;;;;;;;16.01;44.73;95680.97;10358732;28;97812;-65
2022/05/02 19:24:19;;;;;;;3.63;2.67;;;;;;;15.72;45.48;95682.03;10363145;28;97080;-66
2022/05/02 19:29:25;;;;;;;3.30;2.47;;;;;;;15.49;46.54;95681.25;10350953;28;97426;-65
2022/05/02 19:40:05;;;;;;;2.80;2.20;;;;;;;15.26;47.36;95694.63;10359079;28;96999;-66
2022/05/02 19:45:16;;;;;;;2.90;2.40;;;;;;;15.02;48.05;95700.31;10345765;28;96757;-66
2022/05/02 19:50:20;;;;;;;4.10;2.55;;;;;;;14.93;47.72;95704.88;10345067;28;97384;-65
2022/05/02 19:55:24;;;;;;;3.33;2.50;;;;;;;14.81;47.35;95704.56;10342465;28;97828;-66
2022/05/02 20:00:29;;;;;;;2.60;2.38;;;;;;;14.78;48.07;95704.13;10345195;28;97737;-66
2022/05/02 20:05:31;;;;;;;;;;;;;;;14.78;46.84;95704.13;10354574;28;96842;-65
2022/05/02 20:10:35;;;;;;;4.68;2.60;;;;;;;14.79;47.45;95711.00;10341275;28;97238;-65
2022/05/02 20:15:39;;;;;;;3.30;2.70;;;;;;;14.81;47.22;95719.53;10346690;28;97086;-66
2022/05/02 20:20:43;;;;;;;3.42;3.00;;;;;;;14.66;47.71;95723.03;10344949;28;96991;-65
2022/05/02 20:25:46;;;;;;;3.67;2.92;;;;;;;14.37;48.84;95729.97;10345191;28;96766;-65
2022/05/02 20:30:50;;;;;;;5.38;2.90;;;;;;;14.14;50.37;95731.84;10344832;28;96879;-65
2022/05/02 20:41:39;;;;;;;5.18;3.33;;;;;;;14.15;49.90;95731.66;10368780;28;97145;-65
2022/05/02 20:46:53;;;;;;;5.13;3.90;;;;;;;13.83;51.90;95730.25;10359060;28;97134;-65
2022/05/02 20:51:58;;;;;;;7.32;5.10;;;;;;;13.46;52.66;95737.16;10371250;28;96923;-65
2022/05/02 20:57:01;;;;;;;14.27;10.05;;;;;;;13.23;53.71;95727.50;10351378;28;96944;-65
2022/05/02 21:02:06;;;;;;;6.03;4.30;;;;;;;13.16;53.48;95737.06;10339581;28;97101;-65
2022/05/02 21:07:09;;;;;;;4.22;3.42;;;;;;;13.04;53.20;95733.25;10357295;28;97163;-65
2022/05/02 21:12:19;;;;;;;4.63;3.30;;;;;;;12.95;54.17;95734.28;10345181;28;97171;-65
2022/05/02 21:17:32;;;;;;;3.85;3.05;;;;;;;12.90;54.33;95733.97;10341754;28;97079;-66
2022/05/02 21:22:55;;;;;;;4.00;3.15;;;;;;;12.86;54.66;95736.94;10339857;28;97032;-65
2022/05/02 21:28:09;;;;;;;3.85;3.03;;;;;;;12.85;54.10;95735.28;10348026;28;96807;-65
2022/05/02 21:33:37;;;;;;;3.67;2.60;;;;;;;12.77;53.97;95738.00;10344494;28;96867;-65
2022/05/02 21:38:41;;;;;;;5.20;2.95;;;;;;;12.75;53.88;95745.22;10341356;28;97007;-65
2022/05/02 21:43:44;;;;;;;3.57;3.03;;;;;;;12.65;54.00;95739.38;10338303;28;97162;-65
2022/05/02 21:48:48;;;;;;;2.40;2.08;;;;;;;12.54;53.66;95737.94;10342458;28;97285;-65
2022/05/02 21:53:51;;;;;;;5.47;2.53;;;;;;;12.48;53.63;95730.78;10345972;28;96775;-65
2022/05/02 21:58:53;;;;;;;3.88;2.40;;;;;;;12.49;53.41;95748.13;10353920;28;96758;-65
2022/05/02 22:03:59;;;;;;;3.03;2.30;;;;;;;12.47;53.37;95747.47;10347368;28;96905;-65
2022/05/02 22:09:01;;;;;;;4.35;2.60;;;;;;;12.55;52.50;95755.31;10346112;28;97310;-65
2022/05/02 22:14:04;;;;;;;3.38;2.45;;;;;;;12.58;51.99;95743.66;10352222;28;97799;-65
2022/05/02 22:19:09;;;;;;;3.70;2.42;;;;;;;12.56;52.25;95748.25;10362358;28;96860;-67
2022/05/02 22:24:12;;;;;;;3.50;2.40;;;;;;;12.42;52.69;95750.63;10361527;28;97094;-66
2022/05/02 22:29:15;;;;;;;3.85;2.75;;;;;;;12.25;53.37;95754.31;10356026;28;96878;-65
2022/05/02 22:34:20;;;;;;;3.67;3.17;;;;;;;12.20;53.27;95751.38;10354000;28;96853;-64
2022/05/02 22:39:23;;;;;;;4.20;2.42;;;;;;;12.23;53.83;95756.25;10365498;28;96917;-65
2022/05/02 22:44:26;;;;;;;2.72;2.25;;;;;;;12.24;53.44;95756.09;10351502;28;96806;-65
2022/05/02 22:49:30;;;;;;;3.58;2.45;;;;;;;12.24;53.51;95757.91;10368001;28;96859;-66
2022/05/02 22:54:33;;;;;;;2.85;2.15;;;;;;;12.23;53.50;95762.34;10358935;28;98023;-65
2022/05/02 22:59:40;;;;;;;3.65;2.65;;;;;;;12.20;54.32;95757.44;10352637;28;97056;-65
2022/05/02 23:04:55;;;;;;;4.15;2.53;;;;;;;12.16;54.54;95757.94;10359153;28;96940;-65
2022/05/02 23:09:59;;;;;;;3.27;2.67;;;;;;;12.10;54.54;95762.84;10361050;28;96845;-65
2022/05/02 23:15:03;;;;;;;3.97;2.70;;;;;;;12.01;54.79;95758.63;10372307;28;97758;-65
2022/05/02 23:20:09;;;;;;;4.13;2.77;;;;;;;11.97;54.68;95764.38;10355290;28;97353;-65
2022/05/02 23:25:12;;;;;;;2.97;2.45;;;;;;;11.94;55.35;95762.91;10373447;28;98067;-65
2022/05/02 23:30:15;;;;;;;3.67;2.78;;;;;;;11.99;55.36;95765.84;10363997;28;97813;-65
2022/05/02 23:35:23;;;;;;;6.53;3.08;;;;;;;11.98;55.97;95766.00;10360336;28;96862;-65
2022/05/02 23:40:28;;;;;;;4.22;3.35;;;;;;;11.84;56.98;95750.00;10343255;28;97371;-65
2022/05/02 23:45:36;;;;;;;5.43;3.78;;;;;;;11.68;57.38;95753.47;10348350;28;96770;-65
2022/05/02 23:50:47;;;;;;;5.05;3.53;;;;;;;11.61;57.64;95755.13;10360945;28;100037;-65
2022/05/02 23:56:04;;;;;;;4.22;3.65;;;;;;;11.63;58.04;95755.78;10356543;28;96784;-65
